Time;durP1;ratioP1;P1;durP2;ratioP2;P2;SDS_P1;SDS_P2;PMS_P1;PMS_P2;Temp;Humidity;BMP_temperature;BMP_pressure;BME280_temperature;BME280_humidity;BME280_pressure;Samples;Min_cycle;Max_cycle;Signal;HPM_P1;HPM_P2
2022/03/26 00:02:32;;;;;;;25.38;12.20;;;;;;;6.38;100.00;102134.13;5982390;29;20533;-91
2022/03/26 00:05:34;;;;;;;25.05;12.45;;;;;;;6.29;100.00;102142.19;5995544;29;20064;-91
2022/03/26 00:08:36;;;;;;;27.33;12.32;;;;;;;6.19;100.00;102131.38;6003438;29;20056;-91
2022/03/26 00:11:38;;;;;;;26.15;12.55;;;;;;;6.17;100.00;102145.19;5990262;29;20050;-91
2022/03/26 00:14:40;;;;;;;22.15;13.00;;;;;;;6.21;100.00;102145.03;5991667;29;20069;-91
2022/03/26 00:17:42;;;;;;;23.60;12.30;;;;;;;6.20;100.00;102140.75;5994982;29;20050;-91
2022/03/26 00:20:45;;;;;;;26.50;12.20;;;;;;;6.31;100.00;102144.69;5994507;29;20050;-91
2022/03/26 00:23:47;;;;;;;22.73;12.63;;;;;;;6.42;100.00;102145.16;5983186;29;20060;-90
2022/03/26 00:26:48;;;;;;;22.05;12.18;;;;;;;6.42;100.00;102140.84;6000702;29;20079;-91
2022/03/26 00:29:51;;;;;;;24.15;12.98;;;;;;;6.36;100.00;102140.22;5999294;29;20064;-91
2022/03/26 00:32:52;;;;;;;26.33;12.95;;;;;;;6.46;100.00;102133.88;5991913;29;20523;-91
2022/03/26 00:35:54;;;;;;;24.98;13.57;;;;;;;6.25;100.00;102126.00;5996309;29;20133;-91
2022/03/26 00:38:56;;;;;;;24.83;12.68;;;;;;;6.08;100.00;102130.06;6004300;29;20490;-91
2022/03/26 00:41:59;;;;;;;26.65;12.38;;;;;;;6.02;100.00;102136.25;5985817;29;20178;-91
2022/03/26 00:45:01;;;;;;;29.38;13.40;;;;;;;6.07;100.00;102133.53;5991295;29;20127;-91
2022/03/26 00:48:03;;;;;;;31.17;14.40;;;;;;;5.99;100.00;102126.94;5986862;29;20555;-91
2022/03/26 00:51:05;;;;;;;33.95;13.90;;;;;;;5.87;100.00;102124.75;5992322;29;20183;-91
2022/03/26 00:54:10;;;;;;;28.80;12.57;;;;;;;5.85;100.00;102125.69;5975455;29;20064;-91
2022/03/26 00:57:12;;;;;;;26.73;12.65;;;;;;;5.83;100.00;102123.97;5981003;29;20198;-91
2022/03/26 01:00:14;;;;;;;27.40;12.93;;;;;;;5.74;100.00;102121.75;5983086;29;20050;-91
2022/03/26 01:03:18;;;;;;;24.13;13.25;;;;;;;5.65;100.00;102124.59;5992768;29;20543;-91
2022/03/26 01:06:20;;;;;;;30.02;12.23;;;;;;;5.61;100.00;102123.88;5998599;29;20049;-91
2022/03/26 01:09:22;;;;;;;26.83;13.30;;;;;;;5.55;100.00;102128.38;5996707;29;20049;-91
2022/03/26 01:12:25;;;;;;;28.00;13.38;;;;;;;5.47;100.00;102123.47;5981904;29;20046;-91
2022/03/26 01:15:27;;;;;;;29.00;13.43;;;;;;;5.46;100.00;102113.25;5990041;29;20046;-91
2022/03/26 01:18:29;;;;;;;29.10;12.55;;;;;;;5.46;100.00;102120.94;5992134;29;20049;-91
2022/03/26 01:21:31;;;;;;;27.25;13.05;;;;;;;5.52;100.00;102118.19;5995144;29;20037;-91
2022/03/26 01:24:33;;;;;;;27.70;13.65;;;;;;;5.48;100.00;102124.31;6000762;29;20102;-91
2022/03/26 01:27:35;;;;;;;30.00;14.15;;;;;;;5.46;100.00;102116.63;5992792;29;20483;-91
2022/03/26 01:30:36;;;;;;;29.30;13.55;;;;;;;5.50;100.00;102117.41;5987860;29;20042;-91
2022/03/26 01:33:38;;;;;;;29.60;14.10;;;;;;;5.43;100.00;102119.31;5994457;29;20050;-91
2022/03/26 01:36:41;;;;;;;27.48;13.40;;;;;;;5.36;100.00;102104.97;5991424;29;20411;-92
2022/03/26 01:39:43;;;;;;;30.45;13.52;;;;;;;5.31;100.00;102102.56;5998958;29;20178;-91
2022/03/26 01:42:45;;;;;;;30.02;13.13;;;;;;;5.27;100.00;102100.16;5958220;29;20060;-91
2022/03/26 01:45:47;;;;;;;28.60;13.05;;;;;;;5.22;100.00;102105.44;5989453;29;20057;-91
2022/03/26 01:48:49;;;;;;;28.90;12.98;;;;;;;5.15;100.00;102103.94;5993800;29;20145;-91
2022/03/26 01:51:51;;;;;;;32.80;12.85;;;;;;;5.20;100.00;102101.22;5980127;29;20153;-91
2022/03/26 01:54:54;;;;;;;30.27;13.07;;;;;;;5.20;100.00;102099.50;5993845;29;20174;-91
2022/03/26 01:57:56;;;;;;;29.30;15.00;;;;;;;5.25;100.00;102109.63;5980577;29;20631;-91
2022/03/26 02:00:58;;;;;;;33.13;14.82;;;;;;;5.25;100.00;102107.91;5998288;29;20411;-92
2022/03/26 02:04:05;;;;;;;32.20;14.00;;;;;;;5.25;100.00;102109.63;5980313;29;20046;-91
2022/03/26 02:07:07;;;;;;;30.67;14.57;;;;;;;5.22;100.00;102105.44;5977622;29;20049;-91
2022/03/26 02:10:11;;;;;;;25.15;13.55;;;;;;;5.16;100.00;102103.03;5991477;29;20539;-91
2022/03/26 02:13:14;;;;;;;28.67;14.68;;;;;;;5.08;100.00;102099.88;5994060;29;20454;-91
2022/03/26 02:16:16;;;;;;;32.53;14.10;;;;;;;5.02;100.00;102097.47;5973699;29;20050;-91
2022/03/26 02:19:20;;;;;;;27.52;13.85;;;;;;;4.93;100.00;102094.31;5987297;29;20474;-91
2022/03/26 02:22:23;;;;;;;29.63;14.10;;;;;;;4.91;100.00;102096.09;6026821;29;20403;-92
2022/03/26 02:25:25;;;;;;;33.42;14.20;;;;;;;4.97;100.00;102098.47;6009681;29;20050;-91
2022/03/26 02:28:28;;;;;;;30.65;14.95;;;;;;;4.99;100.00;102097.59;5994379;29;20102;-91
2022/03/26 02:31:30;;;;;;;35.80;15.82;;;;;;;5.21;100.00;102105.47;5998796;29;20518;-91
2022/03/26 02:34:32;;;;;;;33.30;15.88;;;;;;;5.11;100.00;102094.66;5994752;29;20046;-91
2022/03/26 02:37:54;;;;;;;31.83;15.00;;;;;;;5.01;100.00;102095.81;5988952;29;20526;-91
2022/03/26 02:40:59;;;;;;;38.70;17.10;;;;;;;4.92;100.00;102096.94;5983871;29;20564;-91
2022/03/26 02:44:03;;;;;;;39.80;16.85;;;;;;;4.91;100.00;102103.78;5959162;29;20392;-92
2022/03/26 02:47:05;;;;;;;37.72;16.90;;;;;;;5.16;100.00;102097.91;5986679;29;20052;-91
2022/03/26 02:50:09;;;;;;;31.23;15.63;;;;;;;5.10;100.00;102103.25;5996696;29;20503;-91
2022/03/26 02:53:12;;;;;;;41.55;17.27;;;;;;;5.18;100.00;102098.69;6001706;29;20049;-91
2022/03/26 02:56:14;;;;;;;34.80;16.70;;;;;;;5.24;100.00;102098.53;6000344;29;20058;-91
2022/03/26 02:59:17;;;;;;;40.00;17.00;;;;;;;5.16;100.00;102101.31;5999757;29;20502;-91
2022/03/26 03:02:19;;;;;;;34.00;15.48;;;;;;;5.09;100.00;102102.41;6006383;29;20190;-91
2022/03/26 03:05:22;;;;;;;39.45;18.58;;;;;;;5.03;100.00;102100.00;5975848;29;20048;-91
2022/03/26 03:08:25;;;;;;;37.85;16.13;;;;;;;4.95;100.00;102100.25;5982958;29;20601;-92
2022/03/26 03:11:28;;;;;;;36.33;16.92;;;;;;;4.99;100.00;102093.28;5998318;29;20078;-91
2022/03/26 03:14:30;;;;;;;36.53;17.02;;;;;;;4.94;100.00;102093.44;5994933;29;20804;-91
2022/03/26 03:17:40;;;;;;;36.45;15.85;;;;;;;4.87;100.00;102091.09;5969041;29;20135;-91
2022/03/26 03:20:42;;;;;;;30.73;15.65;;;;;;;4.75;100.00;102085.44;6000419;29;20054;-91
2022/03/26 03:23:44;;;;;;;37.25;16.55;;;;;;;4.66;100.00;102082.31;5998392;29;20054;-92
2022/03/26 03:26:46;;;;;;;38.42;17.02;;;;;;;4.60;100.00;102077.38;5986398;29;20125;-91
2022/03/26 03:29:49;;;;;;;36.42;15.48;;;;;;;4.56;100.00;102081.72;6019989;29;20371;-91
2022/03/26 03:32:51;;;;;;;34.40;15.75;;;;;;;4.54;100.00;102078.38;6006540;29;20041;-91
2022/03/26 03:35:53;;;;;;;32.15;15.95;;;;;;;4.48;100.00;102074.25;5988139;29;20050;-91
2022/03/26 03:38:55;;;;;;;37.95;17.02;;;;;;;4.43;100.00;102073.56;6003965;29;20074;-91
2022/03/26 03:41:57;;;;;;;35.53;16.17;;;;;;;4.39;100.00;102071.94;5998549;29;20038;-91
2022/03/26 03:44:59;;;;;;;35.28;16.25;;;;;;;4.38;100.00;102067.72;6007704;29;20052;-92
2022/03/26 03:48:01;;;;;;;43.80;17.13;;;;;;;4.34;100.00;102078.94;6006434;29;20066;-91
2022/03/26 03:51:03;;;;;;;34.88;15.90;;;;;;;4.30;100.00;102073.06;5985832;29;20064;-92
2022/03/26 03:54:08;;;;;;;29.65;15.38;;;;;;;4.27;100.00;102072.28;6000410;29;20053;-91
2022/03/26 03:57:10;;;;;;;35.90;15.70;;;;;;;4.23;100.00;102068.16;6014364;29;20429;-91
2022/03/26 04:00:15;;;;;;;31.02;13.88;;;;;;;4.18;100.00;102060.59;6023265;29;20074;-91
2022/03/26 04:03:17;;;;;;;32.92;14.70;;;;;;;4.09;100.00;102056.53;6009681;29;22350;-92
2022/03/26 04:06:19;;;;;;;33.47;15.50;;;;;;;4.03;100.00;102053.31;6023741;29;20048;-92
2022/03/26 04:09:21;;;;;;;31.92;15.60;;;;;;;3.94;100.00;102051.81;6031212;29;20060;-92
2022/03/26 04:12:22;;;;;;;32.45;15.82;;;;;;;3.87;100.00;102050.31;6030828;29;20038;-92
2022/03/26 04:15:24;;;;;;;33.65;15.13;;;;;;;3.85;100.00;102049.50;5998221;29;20069;-91
2022/03/26 04:18:26;;;;;;;35.70;16.60;;;;;;;3.89;100.00;102043.44;6000756;29;20064;-91
2022/03/26 04:21:28;;;;;;;39.53;16.05;;;;;;;3.84;100.00;102047.84;6023975;29;20097;-91
2022/03/26 04:24:30;;;;;;;32.97;16.05;;;;;;;3.81;100.00;102050.47;6029707;29;20114;-91
2022/03/26 04:27:32;;;;;;;30.55;14.05;;;;;;;3.79;100.00;102039.44;6020764;29;20050;-91
2022/03/26 04:30:34;;;;;;;33.67;15.75;;;;;;;3.75;100.00;102041.25;6015233;29;20091;-91
2022/03/26 04:33:35;;;;;;;36.45;15.38;;;;;;;3.67;100.00;102046.53;6004198;29;20039;-92
2022/03/26 04:36:37;;;;;;;39.30;16.13;;;;;;;3.59;100.00;102053.59;5982925;29;20072;-91
2022/03/26 04:39:39;;;;;;;38.35;16.77;;;;;;;3.59;100.00;102055.31;5985363;29;20052;-91
2022/03/26 04:42:42;;;;;;;33.58;16.70;;;;;;;3.64;100.00;102056.88;6003490;29;20604;-92
2022/03/26 04:45:44;;;;;;;39.33;16.73;;;;;;;3.63;100.00;102062.03;6000847;29;20880;-91
2022/03/26 04:48:46;;;;;;;45.70;20.45;;;;;;;3.67;100.00;102066.19;6021513;29;20075;-91
2022/03/26 04:51:48;;;;;;;38.58;18.33;;;;;;;3.68;100.00;102060.22;6034021;29;20153;-91
2022/03/26 04:54:50;;;;;;;45.20;19.02;;;;;;;3.76;100.00;102063.41;6008991;29;20050;-91
2022/03/26 04:57:52;;;;;;;45.88;18.55;;;;;;;3.73;100.00;102067.78;6013035;29;20850;-91
2022/03/26 05:00:53;;;;;;;44.25;20.42;;;;;;;3.85;100.00;102075.13;5996802;29;20042;-91
2022/03/26 05:03:55;;;;;;;45.67;20.38;;;;;;;4.02;100.00;102082.38;6001876;29;20499;-91
2022/03/26 05:06:57;;;;;;;51.88;22.30;;;;;;;4.08;100.00;102082.22;6001419;29;20109;-91
2022/03/26 05:09:59;;;;;;;48.28;19.95;;;;;;;4.32;100.00;102078.13;6005117;29;20061;-91
2022/03/26 05:13:01;;;;;;;45.72;21.00;;;;;;;4.33;100.00;102082.38;6003227;29;20046;-91
2022/03/26 05:16:03;;;;;;;43.50;19.55;;;;;;;4.35;100.00;102083.19;6008410;29;20070;-92
2022/03/26 05:19:05;;;;;;;48.20;19.75;;;;;;;4.30;100.00;102075.63;6012097;29;20069;-91
2022/03/26 05:22:07;;;;;;;41.67;20.25;;;;;;;4.25;100.00;102085.16;5998584;29;20087;-92
2022/03/26 05:25:09;;;;;;;43.40;20.33;;;;;;;4.24;100.00;102088.59;6003801;29;20072;-91
2022/03/26 05:28:11;;;;;;;45.10;21.35;;;;;;;4.26;100.00;102080.88;6003086;29;20053;-92
2022/03/26 05:31:13;;;;;;;55.85;22.38;;;;;;;4.24;100.00;102092.88;6004411;29;20058;-91
2022/03/26 05:34:15;;;;;;;42.35;20.30;;;;;;;4.27;100.00;102098.78;6001601;29;20650;-91
2022/03/26 05:37:18;;;;;;;47.58;21.60;;;;;;;4.27;100.00;102092.78;5997203;29;20514;-91
2022/03/26 05:40:21;;;;;;;49.15;22.55;;;;;;;4.31;100.00;102102.94;5999249;29;20812;-91
2022/03/26 05:43:24;;;;;;;51.22;22.20;;;;;;;4.32;100.00;102101.19;5995022;29;20145;-91
2022/03/26 05:46:26;;;;;;;54.13;23.55;;;;;;;4.35;100.00;102101.13;6002924;29;20502;-91
2022/03/26 05:49:31;;;;;;;46.25;20.45;;;;;;;4.47;100.00;102107.63;5992923;29;20058;-91
2022/03/26 05:52:33;;;;;;;45.58;21.05;;;;;;;4.50;100.00;102110.97;5990480;29;20145;-91
2022/03/26 05:55:35;;;;;;;50.13;22.90;;;;;;;4.51;100.00;102111.78;6003559;29;20042;-91
2022/03/26 05:58:37;;;;;;;52.90;21.35;;;;;;;4.57;100.00;102115.91;5996052;29;20042;-91
2022/03/26 06:01:38;;;;;;;47.58;21.63;;;;;;;4.62;100.00;102121.75;6002900;29;20038;-91
2022/03/26 06:04:41;;;;;;;49.78;20.45;;;;;;;4.69;100.00;102123.25;6004396;29;20087;-91
2022/03/26 06:07:43;;;;;;;47.67;20.98;;;;;;;4.68;100.00;102130.13;5988404;29;20045;-91
2022/03/26 06:10:45;;;;;;;44.85;20.95;;;;;;;4.73;100.00;102129.97;5986876;29;20147;-91
2022/03/26 06:13:47;;;;;;;46.50;21.90;;;;;;;4.82;100.00;102134.88;5993509;29;20046;-91
2022/03/26 06:16:49;;;;;;;57.13;24.17;;;;;;;5.14;100.00;102143.31;5998304;29;20047;-91
2022/03/26 06:19:56;;;;;;;49.70;23.20;;;;;;;5.44;100.00;102148.38;5996574;29;20723;-91
2022/03/26 06:22:58;;;;;;;51.50;22.50;;;;;;;5.58;100.00;102144.50;6004267;29;20050;-91
2022/03/26 06:26:05;;;;;;;50.17;22.88;;;;;;;5.83;100.00;102149.69;6005516;29;20045;-91
2022/03/26 06:29:07;;;;;;;56.47;23.15;;;;;;;5.85;100.00;102156.53;5979825;29;20076;-91
2022/03/26 06:32:09;;;;;;;51.05;23.50;;;;;;;5.62;100.00;102152.97;5984933;29;20049;-91
2022/03/26 06:35:11;;;;;;;53.67;22.17;;;;;;;5.53;100.00;102151.50;6001222;29;20495;-91
2022/03/26 06:38:13;;;;;;;47.88;22.85;;;;;;;5.47;100.00;102167.13;6007567;29;20053;-91
2022/03/26 06:41:16;;;;;;;49.10;23.15;;;;;;;5.58;100.00;102166.78;6006722;29;20068;-91
2022/03/26 06:44:17;;;;;;;56.33;25.02;;;;;;;5.56;100.00;102160.84;6004378;29;20050;-91
2022/03/26 06:47:19;;;;;;;54.63;23.75;;;;;;;5.46;100.00;102165.44;5983368;29;20058;-91
2022/03/26 06:50:21;;;;;;;54.03;23.20;;;;;;;5.42;100.00;102168.16;6005992;29;20519;-91
2022/03/26 06:53:23;;;;;;;49.63;23.77;;;;;;;5.42;100.00;102168.16;5986199;29;20042;-91
2022/03/26 06:56:25;;;;;;;55.92;24.52;;;;;;;5.44;100.00;102169.81;6008778;29;20499;-91
2022/03/26 06:59:27;;;;;;;46.88;23.67;;;;;;;5.46;100.00;102165.44;5991269;29;20123;-92
2022/03/26 07:02:29;;;;;;;56.08;24.08;;;;;;;5.58;100.00;102166.78;5999391;29;20058;-91
2022/03/26 07:05:32;;;;;;;53.28;24.15;;;;;;;5.50;100.00;102172.16;5994670;29;20053;-91
2022/03/26 07:08:33;;;;;;;57.00;23.30;;;;;;;5.49;100.00;102167.06;5992200;29;20633;-91
2022/03/26 07:11:35;;;;;;;56.25;24.13;;;;;;;5.51;100.00;102165.28;5989840;29;20469;-91
2022/03/26 07:14:37;;;;;;;60.45;26.42;;;;;;;5.57;100.00;102158.25;6007578;29;20061;-91
2022/03/26 07:17:41;;;;;;;60.80;24.63;;;;;;;5.73;100.00;102157.75;5988711;29;20093;-91
2022/03/26 07:20:43;;;;;;;60.20;26.42;;;;;;;5.80;100.00;102161.81;6006001;29;20041;-91
2022/03/26 07:23:45;;;;;;;67.35;28.73;;;;;;;6.04;100.00;102158.47;5988381;29;20054;-91
2022/03/26 07:26:47;;;;;;;56.65;26.42;;;;;;;6.31;100.00;102165.25;6007333;29;20046;-91
2022/03/26 07:29:49;;;;;;;58.83;26.30;;;;;;;6.55;100.00;102153.28;5985760;29;20172;-91
2022/03/26 07:32:50;;;;;;;61.72;27.67;;;;;;;6.68;100.00;102155.38;6004165;29;20045;-91
2022/03/26 07:35:52;;;;;;;66.45;27.15;;;;;;;6.81;100.00;102158.31;5986308;29;20419;-91
2022/03/26 07:38:54;;;;;;;61.95;28.05;;;;;;;7.00;100.00;102153.31;6002646;29;20288;-91
2022/03/26 07:41:55;;;;;;;56.58;25.77;;;;;;;7.18;100.00;102154.38;5985647;29;20237;-91
2022/03/26 07:44:57;;;;;;;66.65;27.08;;;;;;;7.28;100.00;102157.44;5987816;29;20435;-91
2022/03/26 07:47:59;;;;;;;67.93;27.40;;;;;;;7.41;100.00;102155.22;6003057;29;20484;-91
2022/03/26 07:51:01;;;;;;;61.70;26.67;;;;;;;7.61;100.00;102149.25;5995270;29;20054;-91
2022/03/26 07:54:04;;;;;;;62.45;26.60;;;;;;;7.80;100.00;102151.91;5983622;29;20522;-91
2022/03/26 07:57:06;;;;;;;60.85;26.98;;;;;;;8.06;100.00;102149.09;6007030;29;20057;-91
2022/03/26 08:00:09;;;;;;;62.75;25.77;;;;;;;8.16;100.00;102149.53;5988288;29;20060;-91
2022/03/26 08:03:13;;;;;;;61.65;26.30;;;;;;;8.33;100.00;102146.25;6003107;29;20064;-91
2022/03/26 08:06:16;;;;;;;61.70;25.10;;;;;;;8.48;100.00;102152.50;5983827;29;20403;-91
2022/03/26 08:09:17;;;;;;;53.65;23.40;;;;;;;8.45;100.00;102158.66;5998763;29;20094;-91
2022/03/26 08:12:19;;;;;;;53.35;23.92;;;;;;;8.52;100.00;102161.78;6000205;29;20411;-91
2022/03/26 08:15:21;;;;;;;49.55;22.80;;;;;;;8.73;100.00;102165.16;5981491;29;20046;-92
2022/03/26 08:18:24;;;;;;;51.10;22.95;;;;;;;8.83;99.87;102158.69;6004753;29;20117;-91
2022/03/26 08:21:27;;;;;;;59.70;24.25;;;;;;;9.01;99.88;102162.16;5992542;29;20046;-91
2022/03/26 08:24:28;;;;;;;46.45;21.80;;;;;;;9.32;96.67;102173.66;6001400;29;20747;-91
2022/03/26 08:27:30;;;;;;;46.63;20.55;;;;;;;9.34;98.19;102166.66;5992768;29;20047;-91
2022/03/26 08:30:32;;;;;;;48.55;20.02;;;;;;;9.37;97.93;102176.88;6004772;29;20589;-91
2022/03/26 08:33:34;;;;;;;46.58;22.13;;;;;;;9.59;96.83;102181.81;6003941;29;20215;-91
2022/03/26 08:36:37;;;;;;;50.60;21.90;;;;;;;9.51;97.86;102176.19;5986045;29;20053;-91
2022/03/26 08:39:39;;;;;;;47.25;21.25;;;;;;;9.62;99.74;102182.53;5999781;29;20102;-91
2022/03/26 08:42:42;;;;;;;51.53;21.48;;;;;;;9.62;99.77;102186.88;6006071;29;20132;-91
2022/03/26 08:45:44;;;;;;;51.28;23.05;;;;;;;9.86;97.01;102183.09;6006352;29;20081;-91
2022/03/26 08:48:48;;;;;;;46.25;20.25;;;;;;;9.96;97.04;102183.44;5988366;29;20408;-91
2022/03/26 08:51:51;;;;;;;47.90;19.63;;;;;;;9.97;97.58;102179.13;5991190;29;20042;-91
2022/03/26 08:54:53;;;;;;;37.30;18.40;;;;;;;10.05;96.21;102197.69;5997695;29;20110;-92
2022/03/26 08:57:56;;;;;;;43.65;22.40;;;;;;;10.10;96.38;102195.72;6008096;29;20085;-91
2022/03/26 09:00:59;;;;;;;44.85;21.55;;;;;;;10.10;96.31;102199.13;5987164;29;20531;-91
2022/03/26 09:04:01;;;;;;;45.25;21.52;;;;;;;10.16;96.32;102191.97;5994974;29;20056;-91
2022/03/26 09:07:04;;;;;;;48.45;21.40;;;;;;;10.21;98.33;102196.03;5985344;29;20056;-91
2022/03/26 09:10:07;;;;;;;47.42;22.02;;;;;;;10.37;94.83;102201.28;5998958;29;20070;-91
2022/03/26 09:13:10;;;;;;;43.88;22.20;;;;;;;10.39;95.59;102194.28;5994868;29;20081;-91
2022/03/26 09:16:12;;;;;;;50.22;21.20;;;;;;;10.39;94.51;102188.25;5997898;29;20062;-91
2022/03/26 09:19:14;;;;;;;46.17;21.75;;;;;;;10.57;93.90;102188.13;5995102;29;20141;-92
2022/03/26 09:22:16;;;;;;;44.42;20.38;;;;;;;10.78;91.25;102190.50;5991818;29;20117;-91
2022/03/26 09:25:20;;;;;;;44.95;21.58;;;;;;;10.73;93.27;102190.78;6002707;29;20078;-91
2022/03/26 09:28:22;;;;;;;42.55;20.05;;;;;;;10.76;92.27;102184.59;6001272;29;20183;-91
2022/03/26 09:31:24;;;;;;;42.40;19.95;;;;;;;10.85;89.91;102194.44;6000645;29;20161;-92
2022/03/26 09:34:26;;;;;;;35.97;18.90;;;;;;;10.91;90.82;102188.94;5998481;29;20048;-92
2022/03/26 09:37:27;;;;;;;39.53;19.48;;;;;;;11.04;88.77;102190.88;5994020;29;20126;-91
2022/03/26 09:40:32;;;;;;;39.85;19.98;;;;;;;11.02;91.31;102187.53;5987828;29;20050;-91
2022/03/26 09:43:35;;;;;;;40.72;20.50;;;;;;;11.04;92.13;102186.53;5992625;29;20053;-91
2022/03/26 09:46:37;;;;;;;41.58;19.15;;;;;;;11.07;92.08;102180.34;5981230;29;20053;-91
2022/03/26 09:49:39;;;;;;;40.85;19.85;;;;;;;11.26;92.58;102175.00;5997018;29;20049;-92
2022/03/26 09:52:41;;;;;;;41.08;19.80;;;;;;;11.42;89.89;102171.44;6011000;29;20091;-92
2022/03/26 09:55:43;;;;;;;45.35;21.48;;;;;;;11.45;91.21;102173.03;5989611;29;20049;-91
2022/03/26 09:58:46;;;;;;;38.20;19.05;;;;;;;11.55;91.78;102161.22;5979822;29;20047;-91
2022/03/26 10:01:49;;;;;;;41.65;20.48;;;;;;;11.71;90.39;102160.34;6013354;29;20284;-91
2022/03/26 10:04:53;;;;;;;41.70;19.92;;;;;;;11.77;90.57;102160.81;5987222;29;20058;-91
2022/03/26 10:07:55;;;;;;;40.72;19.77;;;;;;;11.75;89.45;102154.03;5994555;29;20182;-92
2022/03/26 10:10:57;;;;;;;38.70;19.67;;;;;;;11.92;89.65;102161.72;5984955;29;20050;-92
2022/03/26 10:14:03;;;;;;;34.60;17.83;;;;;;;12.05;89.13;102154.06;5984202;29;20133;-92
2022/03/26 10:17:37;;;;;;;32.42;17.85;;;;;;;12.11;89.75;102153.69;6002904;29;20126;-92
2022/03/26 10:20:39;;;;;;;34.10;18.50;;;;;;;12.19;90.01;102148.03;5974506;29;20066;-92
2022/03/26 10:23:47;;;;;;;35.97;18.20;;;;;;;12.36;88.08;102145.25;5961343;29;20081;-92
2022/03/26 10:26:50;;;;;;;33.20;17.35;;;;;;;12.47;85.72;102145.47;5974689;29;20085;-92
2022/03/26 10:29:59;;;;;;;34.97;17.70;;;;;;;12.57;84.91;102139.69;5959118;29;20532;-91
2022/03/26 10:33:01;;;;;;;35.08;18.77;;;;;;;12.58;86.33;102136.19;5954413;29;20057;-92
2022/03/26 10:36:03;;;;;;;33.65;17.20;;;;;;;12.62;87.30;102138.50;5983231;29;20065;-92
2022/03/26 10:39:13;;;;;;;34.40;18.25;;;;;;;12.74;84.87;102141.25;5978259;29;20050;-92
2022/03/26 10:42:15;;;;;;;32.65;16.38;;;;;;;12.78;86.13;102134.94;5978446;29;20054;-92
2022/03/26 10:45:16;;;;;;;25.77;14.07;;;;;;;13.02;84.26;102130.78;5978919;29;20067;-92
2022/03/26 10:48:31;;;;;;;24.98;13.77;;;;;;;13.15;79.93;102128.25;5979739;29;20094;-92
2022/03/26 10:51:42;;;;;;;27.30;13.98;;;;;;;13.21;77.68;102137.41;5995294;24;20864;-91
2022/03/26 10:54:47;;;;;;;24.60;12.27;;;;;;;13.19;77.32;102131.47;5949994;29;20043;-91
2022/03/26 10:57:49;;;;;;;24.80;13.27;;;;;;;13.30;77.61;102126.47;5928323;29;20133;-91
2022/03/26 11:00:52;;;;;;;22.80;12.98;;;;;;;13.34;77.19;102126.16;5934634;29;20055;-91
2022/03/26 11:03:54;;;;;;;23.63;13.13;;;;;;;13.43;76.15;102134.28;5941815;29;20065;-92
2022/03/26 11:06:57;;;;;;;24.30;13.38;;;;;;;13.44;74.33;102129.00;5946529;29;20055;-91
2022/03/26 11:10:03;;;;;;;26.35;14.07;;;;;;;13.55;74.23;102120.47;5939267;29;20391;-91
2022/03/26 11:13:08;;;;;;;27.45;14.27;;;;;;;13.66;73.60;102127.56;5949414;29;20077;-92
2022/03/26 11:16:21;;;;;;;27.63;14.63;;;;;;;13.64;71.38;102125.09;5956289;29;20145;-92
2022/03/26 11:19:48;;;;;;;27.02;15.52;;;;;;;13.66;73.71;102127.56;5950981;29;20054;-91
2022/03/26 11:23:05;;;;;;;26.83;14.82;;;;;;;13.69;73.96;102128.22;5945079;29;20054;-91
2022/03/26 11:26:40;;;;;;;28.90;14.95;;;;;;;13.89;70.37;102137.28;5945774;29;20134;-92
2022/03/26 11:29:42;;;;;;;26.98;14.52;;;;;;;13.99;71.03;102130.53;5944317;29;20533;-92
2022/03/26 11:32:45;;;;;;;25.90;15.02;;;;;;;14.13;70.34;102132.16;5931317;29;20054;-91
2022/03/26 11:36:03;;;;;;;26.20;14.30;;;;;;;14.18;68.68;102119.66;5944883;29;20517;-91
2022/03/26 11:39:20;;;;;;;26.92;14.07;;;;;;;14.26;66.19;102129.59;5934207;29;20536;-91
2022/03/26 11:42:39;;;;;;;22.80;13.18;;;;;;;14.33;69.24;102114.34;5948433;29;20053;-91
2022/03/26 11:53:35;;;;;;;27.08;13.93;;;;;;;14.53;64.58;102111.19;5945588;29;20500;-91
2022/03/26 11:57:23;;;;;;;28.95;14.57;;;;;;;14.59;65.73;102107.34;5987733;29;20579;-91
2022/03/26 12:00:26;;;;;;;23.48;13.13;;;;;;;14.78;65.63;102099.91;5992633;29;20522;-91
2022/03/26 12:03:31;;;;;;;23.90;13.82;;;;;;;14.94;63.86;102098.78;5981358;29;20496;-91
2022/03/26 12:06:41;;;;;;;21.30;13.30;;;;;;;15.12;61.07;102081.78;5976219;29;20054;-91
2022/03/26 12:09:44;;;;;;;23.57;13.43;;;;;;;15.28;61.23;102087.56;5980344;29;20046;-91
2022/03/26 12:13:00;;;;;;;25.45;12.95;;;;;;;15.29;60.32;102097.03;5972005;29;20053;-92
2022/03/26 12:16:04;;;;;;;22.70;12.40;;;;;;;15.43;59.58;102082.16;5976299;29;20050;-91
2022/03/26 12:19:06;;;;;;;19.33;11.15;;;;;;;15.38;58.20;102072.06;5978106;29;20048;-91
2022/03/26 12:22:21;;;;;;;17.67;11.55;;;;;;;15.24;58.50;102074.84;5994868;29;20491;-91
2022/03/26 12:25:48;;;;;;;20.27;11.13;;;;;;;15.37;58.38;102069.53;5995516;29;20058;-91
2022/03/26 12:28:51;;;;;;;22.48;12.15;;;;;;;15.69;58.00;102072.34;5995024;29;20508;-91
2022/03/26 12:31:53;;;;;;;19.27;11.30;;;;;;;15.82;57.92;102062.66;5991648;29;20058;-88
2022/03/26 12:35:02;;;;;;;24.70;12.82;;;;;;;15.94;56.44;102066.09;5965291;29;20050;-91
2022/03/26 12:38:06;;;;;;;24.35;12.32;;;;;;;15.92;56.22;102061.00;5984800;29;20056;-91
2022/03/26 12:41:08;;;;;;;22.60;12.60;;;;;;;15.93;57.43;102061.84;5983143;29;20056;-91
2022/03/26 12:44:15;;;;;;;22.58;12.82;;;;;;;15.82;56.46;102060.03;5994614;29;20081;-91
2022/03/26 12:47:17;;;;;;;22.00;12.20;;;;;;;15.66;58.18;102062.13;5996809;29;20072;-91
2022/03/26 12:50:23;;;;;;;24.73;13.13;;;;;;;15.59;58.80;102063.56;5996671;29;20061;-91
2022/03/26 12:53:25;;;;;;;25.20;13.15;;;;;;;15.61;58.46;102048.59;6000702;29;20671;-91
2022/03/26 12:56:27;;;;;;;21.73;12.40;;;;;;;15.71;58.35;102054.81;5997846;29;20057;-91
2022/03/26 12:59:29;;;;;;;20.35;11.98;;;;;;;15.77;59.10;102053.50;5995204;29;20042;-92
2022/03/26 13:02:31;;;;;;;19.38;11.18;;;;;;;15.80;59.65;102054.13;5993582;29;20706;-92
2022/03/26 13:05:35;;;;;;;22.63;13.10;;;;;;;15.73;59.47;102049.50;5975956;29;20522;-91
2022/03/26 13:08:37;;;;;;;23.45;13.40;;;;;;;15.72;60.33;102043.41;5975818;29;20057;-91
2022/03/26 13:11:39;;;;;;;22.55;13.00;;;;;;;15.66;60.55;102047.31;5989869;29;20046;-92
2022/03/26 13:14:46;;;;;;;23.20;13.52;;;;;;;15.51;60.82;102036.25;5993259;29;20053;-91
2022/03/26 13:17:48;;;;;;;22.92;13.05;;;;;;;15.61;61.29;102036.38;5992860;29;20129;-91
2022/03/26 13:20:50;;;;;;;23.65;13.10;;;;;;;15.67;60.91;102042.91;5990500;29;20078;-91
2022/03/26 13:23:55;;;;;;;23.10;12.57;;;;;;;15.76;60.95;102038.81;5991988;29;20045;-91
2022/03/26 13:27:08;;;;;;;21.30;10.75;;;;;;;15.88;59.84;102032.66;5978669;29;20053;-91
2022/03/26 13:30:10;;;;;;;17.30;10.75;;;;;;;15.98;60.41;102032.75;5980697;29;20046;-92
2022/03/26 13:33:20;;;;;;;16.80;10.52;;;;;;;16.15;60.32;102033.09;5997080;29;20049;-91
2022/03/26 13:36:29;;;;;;;16.55;9.63;;;;;;;16.46;59.37;102035.06;5991380;29;20049;-91
2022/03/26 13:39:31;;;;;;;16.65;9.93;;;;;;;16.83;60.72;102025.09;5996423;29;20049;-91
2022/03/26 13:42:38;;;;;;;12.98;7.35;;;;;;;17.15;58.98;102024.25;5994072;29;20042;-91
2022/03/26 13:45:43;;;;;;;12.95;8.30;;;;;;;17.59;57.01;102027.56;5975788;29;20057;-92
2022/03/26 13:48:57;;;;;;;14.60;8.30;;;;;;;17.86;57.20;102021.75;5997609;29;20046;-91
2022/03/26 13:52:06;;;;;;;17.35;9.43;;;;;;;18.04;55.25;102033.28;5995406;29;20394;-93
2022/03/26 13:55:48;;;;;;;10.80;6.50;;;;;;;17.83;58.04;102017.59;5995803;29;20624;-93
2022/03/26 13:58:51;;;;;;;12.30;7.22;;;;;;;17.59;58.80;102025.75;5950666;29;20034;-94
2022/03/26 14:02:04;;;;;;;11.95;7.22;;;;;;;17.20;60.31;102022.09;5933003;29;20771;-93
2022/03/26 14:05:36;;;;;;;12.85;7.25;;;;;;;17.14;61.66;102022.56;5918365;30;20104;-93